Portland Hillsboro Airport
KHIO : now visible

Airfield :











YOU CAN JOIN US ON...

 
LOGIN :

Register | Disclaimer

   EN    FR    IT 

 









Legend :    VFR   Marginal VFR   IFR   Intensive IFR   Very Intensive IFR
Visi :
Ceiling :
>= 8 km
>= 3000ft
5 to 8 km
1000 to 3000 ft
1500m to 5 km
500 to 1000 ft
800 to 1500m
200 to 500 ft
< 800m
< 200 ft
Symbols :   Thunderstorms  Fog  Heavy snow  Heavy precipitations  Wind > 20 kt






- Airport Elevation : 208 ft


KHIO - Portland Hillsboro

CURRENT METAR :
  • 251553Z 36003KT 10SM OVC008 04/03 A3027 RMK AO2 RAE51 CIG 007V012 SLP252 P0001 T00440033

EXPIRED METARs :
  • 251522Z 21003KT 10SM -RA OVC013 04/03 A3026 RMK AO2 P0001 T00440033
  • 251453Z 18009KT 10SM -RA SCT015 BKN023 OVC030 04/03 A3026 RMK AO2 SLP248 P0000 60001 T00440033 58018
  • 251353Z 20005KT 9SM -RA BKN019 OVC026 04/02 A3028 RMK AO2 RAB38 SLP254 P0001 T00440022

TAF KHIO
Valid from the 25 at 16:00 until the 26 at 12:00 UTC


251613Z 2516/2612 23006KT P6SM -RA BKN010 OVC030
FM251900 24013G19KT P6SM -SHRA SCT010 BKN022 OVC035
FM252200 26014G22KT P6SM -SHRA SCT015 BKN035 BKN045
FM260600 21011KT P6SM -SHRA SCT028 BKN045
KZSE FIR / North America



MET'MAP, your aeronautical weather chart ! - Copyright ORBIFLY December 2007 - Disclaimer

ORBIFLY MET'MAP TEAM :

Programming & Development : Alexandra Zaïnal
Concept & original design : Baudouin d'Aumeries
Assistance for programming : Marc-Olivier Méhu
Technical & hardware support : Manuel Goepfert

Contact : metmap@orbifly.com




SOURCES & CREDITS :

   NOAA       Earth
Advisory